createdAt,value
2022-10-23T00:01:26.465Z,98383.81
2022-10-23T00:04:03.126Z,98379.16
2022-10-23T00:06:30.113Z,98374.16
2022-10-23T00:08:56.682Z,98369.53
2022-10-23T00:11:26.006Z,98361.25
2022-10-23T00:13:54.765Z,98358.63
2022-10-23T00:16:21.359Z,98353.31
2022-10-23T00:18:47.892Z,98343.88
2022-10-23T00:21:15.279Z,98350.16
2022-10-23T00:23:41.819Z,98342.19
2022-10-23T00:26:08.532Z,98344.69
2022-10-23T00:28:35.114Z,98342.69
2022-10-23T00:31:02.408Z,98351.81
2022-10-23T00:33:28.991Z,98354.97
2022-10-23T00:35:55.488Z,98356.66
2022-10-23T00:38:22.005Z,98356.31
2022-10-23T00:43:35.637Z,98345.94
2022-10-23T00:46:02.132Z,98350.22
2022-10-23T00:48:28.703Z,98351.41
2022-10-23T00:50:55.303Z,98360.34
2022-10-23T00:53:21.985Z,98357.50
2022-10-23T00:55:49.370Z,98362.50
2022-10-23T00:58:19.051Z,98352.38
2022-10-23T01:00:47.333Z,98352.22
2022-10-23T01:03:14.460Z,98345.44
2022-10-23T01:05:52.767Z,98345.63
2022-10-23T01:08:24.593Z,98333.19
2022-10-23T01:10:56.247Z,98345.47
2022-10-23T01:13:35.816Z,98343.19
2022-10-23T01:16:07.309Z,98349.50
2022-10-23T01:18:43.149Z,98337.56
2022-10-23T01:21:10.735Z,98341.06
2022-10-23T01:23:46.362Z,98342.88
2022-10-23T01:26:15.958Z,98346.72
2022-10-23T01:28:50.730Z,98335.09
2022-10-23T01:31:21.363Z,98328.28
2022-10-23T01:33:49.169Z,98330.09
2022-10-23T01:36:23.440Z,98325.94
2022-10-23T01:38:56.338Z,98323.63
2022-10-23T01:41:35.073Z,98314.34
2022-10-23T01:44:03.486Z,98319.16
2022-10-23T01:46:35.486Z,98320.97
2022-10-23T01:49:02.627Z,98310.69
2022-10-23T01:51:29.392Z,98307.22
2022-10-23T01:54:01.606Z,98302.75
2022-10-23T01:56:32.490Z,98310.72
2022-10-23T01:59:00.184Z,98310.06
2022-10-23T02:01:31.099Z,98309.06
2022-10-23T02:06:25.789Z,98309.56
2022-10-23T02:08:52.394Z,98310.56
2022-10-23T02:11:20.977Z,98304.13
2022-10-23T02:14:02.138Z,98301.94
2022-10-23T02:16:31.785Z,98289.38
2022-10-23T02:19:04.349Z,98294.50
2022-10-23T02:21:51.151Z,98289.50
2022-10-23T02:24:20.269Z,98287.19
2022-10-23T02:26:50.760Z,98287.72
2022-10-23T02:29:18.760Z,98279.75
2022-10-23T02:31:46.727Z,98278.72
2022-10-23T02:34:13.614Z,98268.94
2022-10-23T02:36:40.304Z,98275.22
2022-10-23T02:39:07.694Z,98275.06
2022-10-23T02:41:55.817Z,98277.22
2022-10-23T02:44:28.226Z,98272.72
2022-10-23T02:47:07.477Z,98271.06
2022-10-23T02:49:37.017Z,98261.09
2022-10-23T02:52:29.600Z,98254.63
2022-10-23T02:55:15.281Z,98257.28
2022-10-23T02:57:57.359Z,98255.41
2022-10-23T03:00:24.229Z,98260.72
2022-10-23T03:02:50.735Z,98263.56
2022-10-23T03:05:21.063Z,98258.25
2022-10-23T03:07:48.464Z,98248.78
2022-10-23T03:10:16.785Z,98258.06
2022-10-23T03:12:43.673Z,98245.97
2022-10-23T03:15:11.425Z,98250.81
2022-10-23T03:17:38.020Z,98242.03
2022-10-23T03:20:05.951Z,98241.34
2022-10-23T03:22:32.472Z,98238.38
2022-10-23T03:25:00.155Z,98241.03
2022-10-23T03:30:16.377Z,98236.78
2022-10-23T03:32:43.529Z,98237.94
2022-10-23T03:35:10.416Z,98233.13
2022-10-23T03:37:37.988Z,98230.47
2022-10-23T03:40:04.870Z,98231.19
2022-10-23T03:42:34.458Z,98229.16
2022-10-23T03:45:01.173Z,98225.53
2022-10-23T03:47:27.849Z,98225.53
2022-10-23T03:49:54.400Z,98232.31
2022-10-23T03:55:11.778Z,98217.06
2022-10-23T03:57:38.478Z,98225.34
2022-10-23T04:00:06.367Z,98217.56
2022-10-23T04:02:43.240Z,98221.88
2022-10-23T04:05:10.395Z,98217.91
2022-10-23T04:07:39.085Z,98223.72
2022-10-23T04:10:06.178Z,98221.56
2022-10-23T04:12:32.748Z,98224.22
2022-10-23T04:14:59.318Z,98223.53
2022-10-23T04:17:25.933Z,98234.31
2022-10-23T04:19:52.455Z,98228.00
2022-10-23T04:22:19.218Z,98234.28
2022-10-23T04:24:46.844Z,98220.16
2022-10-23T04:27:18.209Z,98231.09
2022-10-23T04:29:44.734Z,98228.28
2022-10-23T04:32:11.291Z,98233.78
2022-10-23T04:34:37.859Z,98233.81
2022-10-23T04:37:04.355Z,98225.56
2022-10-23T04:39:30.870Z,98237.50
2022-10-23T04:41:57.472Z,98232.69
2022-10-23T04:44:25.168Z,98227.88
2022-10-23T04:46:51.728Z,98227.88
2022-10-23T04:49:18.253Z,98231.72
2022-10-23T04:52:19.848Z,98224.91
2022-10-23T04:55:12.717Z,98229.53
2022-10-23T04:57:44.119Z,98236.47
2022-10-23T05:00:12.605Z,98230.03
2022-10-23T05:02:44.163Z,98226.72
2022-10-23T05:05:13.680Z,98233.47
2022-10-23T05:08:00.881Z,98224.88
2022-10-23T05:10:59.597Z,98231.00
2022-10-23T05:13:26.325Z,98232.50
2022-10-23T05:15:53.131Z,98234.81
2022-10-23T05:18:36.272Z,98219.25
2022-10-23T05:21:07.943Z,98221.38
2022-10-23T05:23:34.535Z,98216.91
2022-10-23T05:26:03.443Z,98221.53
2022-10-23T05:28:31.374Z,98212.59
2022-10-23T05:30:59.128Z,98213.25
2022-10-23T05:33:27.504Z,98210.63
2022-10-23T05:35:54.076Z,98206.47
2022-10-23T05:38:22.064Z,98211.44
2022-10-23T05:40:50.564Z,98205.97
2022-10-23T05:43:19.022Z,98204.31
2022-10-23T05:46:08.921Z,98210.56
2022-10-23T05:48:49.812Z,98198.59
2022-10-23T05:51:38.815Z,98196.94
2022-10-23T05:54:27.934Z,98196.63
2022-10-23T05:57:14.757Z,98190.50
2022-10-23T05:59:44.208Z,98188.00
2022-10-23T06:02:31.027Z,98191.13
2022-10-23T06:05:06.357Z,98189.66
2022-10-23T06:07:59.211Z,98179.03
2022-10-23T06:10:26.232Z,98178.38
2022-10-23T06:12:55.374Z,98183.81
2022-10-23T06:15:22.093Z,98182.63
2022-10-23T06:18:11.232Z,98180.47
2022-10-23T06:20:48.901Z,98183.91
2022-10-23T06:23:23.330Z,98183.72
2022-10-23T06:26:09.330Z,98177.88
2022-10-23T06:28:47.496Z,98176.16
2022-10-23T06:31:15.000Z,98177.66
2022-10-23T06:33:41.781Z,98178.66
2022-10-23T06:36:10.754Z,98178.66
2022-10-23T06:38:40.718Z,98179.44
2022-10-23T06:41:11.375Z,98180.75
2022-10-23T06:43:38.236Z,98181.22
2022-10-23T06:46:23.986Z,98176.72
2022-10-23T06:49:16.504Z,98172.59
2022-10-23T06:51:48.358Z,98172.28
2022-10-23T06:54:16.530Z,98169.63
2022-10-23T06:57:03.234Z,98168.09
2022-10-23T06:59:38.481Z,98170.06
2022-10-23T07:02:06.503Z,98170.47
2022-10-23T07:04:33.280Z,98165.63
2022-10-23T07:07:02.084Z,98169.13
2022-10-23T07:09:37.708Z,98167.94
2022-10-23T07:12:25.890Z,98168.91
2022-10-23T07:15:12.413Z,98161.88
2022-10-23T07:17:39.016Z,98167.94
2022-10-23T07:20:06.235Z,98174.72
2022-10-23T07:22:33.497Z,98172.56
2022-10-23T07:25:10.404Z,98161.31
2022-10-23T07:27:38.615Z,98164.59
2022-10-23T07:30:07.781Z,98162.59
2022-10-23T07:32:42.321Z,98166.19
2022-10-23T07:35:27.685Z,98165.06
2022-10-23T07:38:04.668Z,98162.69
2022-10-23T07:40:34.873Z,98162.16
2022-10-23T07:43:02.874Z,98172.06
2022-10-23T07:45:30.407Z,98172.59
2022-10-23T07:48:04.209Z,98182.34
2022-10-23T07:50:46.818Z,98181.78
2022-10-23T07:53:24.645Z,98174.44
2022-10-23T07:55:57.934Z,98185.84
2022-10-23T07:58:26.699Z,98183.91
2022-10-23T08:01:06.426Z,98183.28
2022-10-23T08:03:38.328Z,98186.84
2022-10-23T08:06:06.168Z,98181.34
2022-10-23T08:08:33.620Z,98174.44
2022-10-23T08:11:07.687Z,98175.00
2022-10-23T08:13:47.893Z,98179.03
2022-10-23T08:16:19.579Z,98177.66
2022-10-23T08:19:06.245Z,98169.28
2022-10-23T08:21:34.763Z,98169.78
2022-10-23T08:24:02.328Z,98165.59
2022-10-23T08:26:30.311Z,98157.31
2022-10-23T08:29:01.928Z,98164.34
2022-10-23T08:31:30.233Z,98154.06
2022-10-23T08:34:24.078Z,98150.06
2022-10-23T08:36:52.479Z,98152.06
2022-10-23T08:39:19.091Z,98140.03
2022-10-23T08:42:02.047Z,98132.91
2022-10-23T08:44:31.896Z,98136.22
2022-10-23T08:46:59.405Z,98136.66
2022-10-23T08:49:46.523Z,98124.53
2022-10-23T08:52:30.499Z,98130.53
2022-10-23T08:55:05.634Z,98127.84
2022-10-23T08:57:38.781Z,98122.72
2022-10-23T09:00:08.935Z,98122.13
2022-10-23T09:02:41.067Z,98117.44
2022-10-23T09:05:15.119Z,98110.47
2022-10-23T09:07:51.578Z,98116.44
2022-10-23T09:10:34.807Z,98114.81
2022-10-23T09:13:04.042Z,98113.19
2022-10-23T09:15:31.873Z,98118.59
2022-10-23T09:18:04.759Z,98120.50
2022-10-23T09:20:35.675Z,98126.91
2022-10-23T09:23:04.433Z,98123.03
2022-10-23T09:25:34.264Z,98128.41
2022-10-23T09:28:05.333Z,98125.56
2022-10-23T09:30:34.365Z,98124.34
2022-10-23T09:33:01.221Z,98116.13
2022-10-23T09:35:28.754Z,98116.53
2022-10-23T09:37:55.546Z,98122.28
2022-10-23T09:40:27.287Z,98116.13
2022-10-23T09:42:58.407Z,98117.59
2022-10-23T09:45:27.986Z,98111.19
2022-10-23T09:48:24.411Z,98103.97
2022-10-23T09:50:52.350Z,98103.38
2022-10-23T09:53:22.174Z,98101.72
2022-10-23T09:55:52.885Z,98101.72
2022-10-23T09:58:39.809Z,98104.38
2022-10-23T10:01:10.656Z,98088.94
2022-10-23T10:03:51.822Z,98075.06
2022-10-23T10:06:23.671Z,98071.97
2022-10-23T10:08:53.008Z,98082.66
2022-10-23T10:11:22.739Z,98083.44
2022-10-23T10:14:07.282Z,98091.19
2022-10-23T10:19:09.822Z,98093.25
2022-10-23T10:21:54.950Z,98102.09
2022-10-23T10:24:23.574Z,98094.50
2022-10-23T10:26:59.158Z,98094.06
2022-10-23T10:29:31.800Z,98086.22
2022-10-23T10:32:04.961Z,98085.34
2022-10-23T10:34:37.627Z,98081.41
2022-10-23T10:37:24.602Z,98083.41
2022-10-23T10:39:57.465Z,98070.63
2022-10-23T10:42:27.282Z,98068.03
2022-10-23T10:44:57.626Z,98065.44
2022-10-23T10:47:51.842Z,98051.97
2022-10-23T10:50:37.953Z,98041.66
2022-10-23T10:53:19.552Z,98016.84
2022-10-23T10:55:47.231Z,98021.16
2022-10-23T10:58:16.256Z,98031.91
2022-10-23T11:00:42.966Z,98031.69
2022-10-23T11:03:22.331Z,98037.91
2022-10-23T11:05:50.643Z,98048.72
2022-10-23T11:08:22.408Z,98059.91
2022-10-23T11:10:50.720Z,98047.22
2022-10-23T11:13:28.842Z,98040.16
2022-10-23T11:15:56.632Z,98036.59
2022-10-23T11:18:24.498Z,98037.41
2022-10-23T11:21:00.083Z,98031.34
2022-10-23T11:23:32.530Z,98023.00
2022-10-23T11:25:59.076Z,98013.66
2022-10-23T11:28:34.841Z,98003.19
2022-10-23T11:31:11.885Z,98003.19
2022-10-23T11:33:57.585Z,97998.84
2022-10-23T11:36:39.399Z,97991.22
2022-10-23T11:39:07.413Z,97981.53
2022-10-23T11:41:34.761Z,97985.09
2022-10-23T11:44:03.632Z,97978.16
2022-10-23T11:46:37.058Z,97972.47
2022-10-23T11:49:06.134Z,97969.66
2022-10-23T11:51:34.359Z,97963.84
2022-10-23T11:54:07.923Z,97963.16
2022-10-23T11:56:34.538Z,97972.00
2022-10-23T11:59:17.248Z,97964.72
2022-10-23T12:01:45.581Z,97967.34
2022-10-23T12:04:12.375Z,97957.41
2022-10-23T12:06:43.049Z,97953.69
2022-10-23T12:09:22.322Z,97957.19
2022-10-23T12:11:49.411Z,97962.94
2022-10-23T12:14:29.907Z,97955.00
2022-10-23T12:16:56.597Z,97941.50
2022-10-23T12:19:24.190Z,97936.84
2022-10-23T12:21:51.421Z,97938.84
2022-10-23T12:24:22.488Z,97944.34
2022-10-23T12:26:56.781Z,97935.34
2022-10-23T12:29:32.961Z,97931.19
2022-10-23T12:32:03.807Z,97934.69
2022-10-23T12:34:36.478Z,97942.69
2022-10-23T12:37:16.479Z,97930.88
2022-10-23T12:39:43.205Z,97929.00
2022-10-23T12:42:16.055Z,97929.00
2022-10-23T12:44:42.811Z,97921.88
2022-10-23T12:47:11.757Z,97917.69
2022-10-23T12:49:38.266Z,97919.09
2022-10-23T12:52:06.050Z,97911.16
2022-10-23T12:54:33.909Z,97914.19
2022-10-23T12:57:00.382Z,97903.22
2022-10-23T12:59:37.051Z,97907.53
2022-10-23T13:02:13.990Z,97912.44
2022-10-23T13:04:40.606Z,97894.78
2022-10-23T13:07:07.111Z,97888.59
2022-10-23T13:09:34.672Z,97896.31
2022-10-23T13:12:24.662Z,97890.09
2022-10-23T13:15:17.795Z,97888.94
2022-10-23T13:17:45.746Z,97876.06
2022-10-23T13:20:18.507Z,97868.72
2022-10-23T13:22:46.461Z,97864.63
2022-10-23T13:25:23.936Z,97858.78
2022-10-23T13:27:50.598Z,97854.06
2022-10-23T13:30:33.424Z,97863.28
2022-10-23T13:33:00.051Z,97865.25
2022-10-23T13:35:26.787Z,97864.50
2022-10-23T13:37:54.405Z,97865.44
2022-10-23T13:40:25.725Z,97862.63
2022-10-23T13:42:55.532Z,97866.44
2022-10-23T13:45:23.461Z,97862.22
2022-10-23T13:47:50.179Z,97862.91
2022-10-23T13:50:17.217Z,97859.63
2022-10-23T13:52:43.865Z,97863.13
2022-10-23T13:55:17.166Z,97869.09
2022-10-23T13:57:43.940Z,97862.47
2022-10-23T14:00:11.117Z,97861.19
2022-10-23T14:02:38.504Z,97867.22
2022-10-23T14:05:05.150Z,97860.44
2022-10-23T14:07:31.627Z,97861.94
2022-10-23T14:09:58.192Z,97854.34
2022-10-23T14:12:24.712Z,97850.50
2022-10-23T14:14:51.953Z,97856.16
2022-10-23T14:17:19.140Z,97847.72
2022-10-23T14:19:45.878Z,97853.19
2022-10-23T14:22:12.391Z,97850.34
2022-10-23T14:24:39.032Z,97853.09
2022-10-23T14:27:05.595Z,97849.47
2022-10-23T14:29:32.188Z,97847.44
2022-10-23T14:31:58.755Z,97833.88
2022-10-23T14:34:25.402Z,97838.91
2022-10-23T14:37:07.352Z,97838.91
2022-10-23T14:39:34.453Z,97827.13
2022-10-23T14:42:00.983Z,97825.03
2022-10-23T14:44:27.719Z,97830.63
2022-10-23T14:46:54.242Z,97821.03
2022-10-23T14:49:20.851Z,97834.19
2022-10-23T14:51:47.385Z,97841.13
2022-10-23T14:54:15.778Z,97832.56
2022-10-23T14:56:42.337Z,97826.97
2022-10-23T14:59:10.814Z,97827.56
2022-10-23T15:01:43.806Z,97816.13
2022-10-23T15:04:14.452Z,97816.47
2022-10-23T15:06:41.988Z,97821.09
2022-10-23T15:09:08.925Z,97808.13
2022-10-23T15:11:35.521Z,97808.94
2022-10-23T15:14:02.019Z,97806.25
2022-10-23T15:16:28.629Z,97788.16
2022-10-23T15:18:55.151Z,97795.31
2022-10-23T15:21:21.721Z,97785.06
2022-10-23T15:23:48.382Z,97793.44
2022-10-23T15:26:20.133Z,97796.13
2022-10-23T15:28:47.409Z,97785.25
2022-10-23T15:31:24.059Z,97795.03
2022-10-23T15:33:50.587Z,97792.66
2022-10-23T15:36:17.105Z,97782.44
2022-10-23T15:38:43.585Z,97775.31
2022-10-23T15:41:14.385Z,97777.19
2022-10-23T15:43:40.957Z,97772.25
2022-10-23T15:46:07.496Z,97768.53
2022-10-23T15:48:34.139Z,97769.56
2022-10-23T15:51:00.718Z,97761.53
2022-10-23T15:53:27.214Z,97752.66
2022-10-23T15:55:53.847Z,97755.81
2022-10-23T15:58:20.621Z,97761.22
2022-10-23T16:00:47.180Z,97763.09
2022-10-23T16:03:13.703Z,97765.41
2022-10-23T16:05:40.208Z,97748.94
2022-10-23T16:08:06.745Z,97753.91
2022-10-23T16:10:33.430Z,97742.22
2022-10-23T16:12:59.932Z,97739.19
2022-10-23T16:15:26.733Z,97745.34
2022-10-23T16:17:54.264Z,97746.53
2022-10-23T16:20:21.344Z,97750.72
2022-10-23T16:25:01.730Z,97760.88
2022-10-23T16:27:28.335Z,97754.72
2022-10-23T16:31:32.499Z,97774.94
2022-10-23T16:34:00.480Z,97776.09
2022-10-23T16:36:27.488Z,97766.53
2022-10-23T16:39:14.048Z,97764.59
2022-10-23T16:41:59.220Z,97757.38
2022-10-23T16:44:34.965Z,97771.66
2022-10-23T16:47:04.288Z,97761.31
2022-10-23T16:49:32.247Z,97758.59
2022-10-23T16:51:58.970Z,97761.13
2022-10-23T16:54:25.614Z,97755.91
2022-10-23T16:56:52.284Z,97757.38
2022-10-23T16:59:19.271Z,97755.25
2022-10-23T17:01:46.070Z,97742.97
2022-10-23T17:04:12.803Z,97741.41
2022-10-23T17:06:39.546Z,97745.03
2022-10-23T17:09:06.873Z,97748.31
2022-10-23T17:11:38.472Z,97765.16
2022-10-23T17:14:11.372Z,97768.34
2022-10-23T17:16:44.612Z,97766.22
2022-10-23T17:19:20.858Z,97782.94
2022-10-23T17:21:55.338Z,97778.97
2022-10-23T17:24:22.920Z,97781.19
2022-10-23T17:26:49.645Z,97778.59
2022-10-23T17:29:16.521Z,97790.75
2022-10-23T17:31:46.008Z,97785.59
2022-10-23T17:34:15.627Z,97793.13
2022-10-23T17:36:44.974Z,97815.00
2022-10-23T17:39:14.150Z,97824.81
2022-10-23T17:41:41.591Z,97831.59
2022-10-23T17:44:08.477Z,97859.06
2022-10-23T17:46:35.204Z,97839.25
2022-10-23T17:51:57.182Z,97813.53
2022-10-23T17:54:26.072Z,97821.84
2022-10-23T17:56:52.817Z,97802.59
2022-10-23T17:59:19.817Z,97811.84
2022-10-23T18:01:48.389Z,97811.41
2022-10-23T18:04:17.227Z,97814.84
2022-10-23T18:06:46.390Z,97809.97
2022-10-23T18:09:13.676Z,97819.88
2022-10-23T18:11:46.908Z,97817.81
2022-10-23T18:14:15.120Z,97827.16
2022-10-23T18:16:41.956Z,97823.88
2022-10-23T18:19:08.878Z,97831.25
2022-10-23T18:21:35.992Z,97835.78
2022-10-23T18:24:03.498Z,97844.88
2022-10-23T18:26:31.453Z,97845.69
2022-10-23T18:28:59.171Z,97860.75
2022-10-23T18:31:29.667Z,97869.78
2022-10-23T18:34:08.188Z,97886.63
2022-10-23T18:36:37.353Z,97893.03
2022-10-23T18:39:05.469Z,97904.53
2022-10-23T18:41:34.216Z,97926.16
2022-10-23T18:44:00.997Z,97936.84
2022-10-23T18:46:27.904Z,97982.94
2022-10-23T18:48:54.596Z,98000.28
2022-10-23T18:51:24.148Z,97972.03
2022-10-23T18:53:51.733Z,97960.88
2022-10-23T18:56:22.889Z,97954.41
2022-10-23T18:58:54.928Z,97931.56
2022-10-23T19:01:22.508Z,97918.16
2022-10-23T19:03:49.470Z,97925.56
2022-10-23T19:06:16.604Z,97940.22
2022-10-23T19:08:44.217Z,97934.31
2022-10-23T19:11:12.339Z,97942.03
2022-10-23T19:13:40.798Z,97955.91
2022-10-23T19:16:14.031Z,97957.06
2022-10-23T19:18:43.018Z,97952.25
2022-10-23T19:21:09.795Z,97942.22
2022-10-23T19:23:36.800Z,97947.97
2022-10-23T19:26:09.046Z,97958.16
2022-10-23T19:28:37.836Z,97960.81
2022-10-23T19:31:05.581Z,97965.06
2022-10-23T19:33:32.680Z,97968.69
2022-10-23T19:36:03.668Z,97961.94
2022-10-23T19:38:32.965Z,97951.88
2022-10-23T19:40:59.701Z,97955.81
2022-10-23T19:43:26.406Z,97952.13
2022-10-23T19:45:53.043Z,97957.09
2022-10-23T19:48:19.895Z,97944.97
2022-10-23T19:50:46.588Z,97946.97
2022-10-23T19:53:13.807Z,97937.56
2022-10-23T19:55:40.434Z,97936.94
2022-10-23T19:58:07.257Z,97927.50
2022-10-23T20:00:33.895Z,97936.66
2022-10-23T20:03:00.529Z,97937.25
2022-10-23T20:05:27.303Z,97933.09
2022-10-23T20:07:54.032Z,97934.31
2022-10-23T20:10:20.664Z,97928.34
2022-10-23T20:12:56.451Z,97920.94
2022-10-23T20:15:23.731Z,97932.00
2022-10-23T20:17:50.444Z,97929.56
2022-10-23T20:20:17.328Z,97929.75
2022-10-23T20:22:44.277Z,97934.88
2022-10-23T20:25:11.537Z,97936.56
2022-10-23T20:27:38.271Z,97934.25
2022-10-23T20:30:05.477Z,97938.44
2022-10-23T20:32:33.865Z,97929.13
2022-10-23T20:35:00.786Z,97929.94
2022-10-23T20:37:28.133Z,97920.03
2022-10-23T20:39:55.485Z,97927.41
2022-10-23T20:42:22.120Z,97919.06
2022-10-23T20:44:48.998Z,97921.50
2022-10-23T20:47:15.660Z,97920.38
2022-10-23T20:49:42.292Z,97922.59
2022-10-23T20:52:09.080Z,97923.75
2022-10-23T20:54:38.223Z,97926.81
2022-10-23T20:57:05.176Z,97925.78
2022-10-23T20:59:31.914Z,97927.41
2022-10-23T21:01:58.641Z,97931.16
2022-10-23T21:04:27.617Z,97933.22
2022-10-23T21:07:11.662Z,97934.84
2022-10-23T21:09:39.483Z,97938.34
2022-10-23T21:12:06.857Z,97935.00
2022-10-23T21:14:34.391Z,97945.13
2022-10-23T21:17:01.302Z,97947.78
2022-10-23T21:19:28.001Z,97940.63
2022-10-23T21:21:55.198Z,97936.50
2022-10-23T21:24:21.837Z,97946.81
2022-10-23T21:26:48.467Z,97937.88
2022-10-23T21:29:19.758Z,97948.44
2022-10-23T21:31:58.361Z,97949.44
2022-10-23T21:34:26.173Z,97942.88
2022-10-23T21:39:39.872Z,97950.41
2022-10-23T21:42:06.607Z,97952.06
2022-10-23T21:44:33.285Z,97955.75
2022-10-23T21:47:00.001Z,97961.13
2022-10-23T21:49:26.667Z,97952.22
2022-10-23T21:51:55.067Z,97945.66
2022-10-23T21:54:22.134Z,97944.41
2022-10-23T21:56:50.862Z,97942.19
2022-10-23T21:59:24.285Z,97944.19
2022-10-23T22:01:51.863Z,97941.34
2022-10-23T22:04:20.420Z,97938.22
2022-10-23T22:06:48.198Z,97937.00
2022-10-23T22:09:19.570Z,97934.28
2022-10-23T22:11:48.195Z,97926.16
2022-10-23T22:14:14.853Z,97920.22
2022-10-23T22:16:42.259Z,97916.94
2022-10-23T22:19:11.573Z,97924.38
2022-10-23T22:21:38.261Z,97927.06
2022-10-23T22:24:05.307Z,97910.19
2022-10-23T22:26:35.629Z,97910.19
2022-10-23T22:29:06.161Z,97918.69
2022-10-23T22:31:34.606Z,97914.03
2022-10-23T22:34:13.180Z,97920.03
2022-10-23T22:36:49.635Z,97919.66
2022-10-23T22:39:16.505Z,97918.59
2022-10-23T22:41:47.538Z,97913.91
2022-10-23T22:44:17.299Z,97911.19
2022-10-23T22:46:44.718Z,97913.25
2022-10-23T22:49:11.398Z,97910.56
2022-10-23T22:51:39.707Z,97908.88
2022-10-23T22:54:06.390Z,97910.72
2022-10-23T22:56:34.016Z,97913.25
2022-10-23T22:59:00.635Z,97904.03
2022-10-23T23:01:33.619Z,97911.00
2022-10-23T23:04:08.817Z,97916.16
2022-10-23T23:06:47.302Z,97919.22
2022-10-23T23:09:17.923Z,97911.81
2022-10-23T23:11:51.524Z,97921.53
2022-10-23T23:14:23.195Z,97922.16
2022-10-23T23:16:54.564Z,97930.81
2022-10-23T23:19:23.029Z,97936.00
2022-10-23T23:21:50.318Z,97933.31
2022-10-23T23:24:17.311Z,97933.75
2022-10-23T23:26:43.923Z,97936.66
2022-10-23T23:29:10.796Z,97929.06
2022-10-23T23:31:37.443Z,97931.72
2022-10-23T23:34:04.068Z,97927.19
2022-10-23T23:36:30.720Z,97933.34
2022-10-23T23:38:57.952Z,97930.91
2022-10-23T23:41:26.170Z,97935.41
2022-10-23T23:43:56.959Z,97936.66
2022-10-23T23:46:23.879Z,97934.34
2022-10-23T23:48:50.631Z,97930.81
2022-10-23T23:51:23.045Z,97933.31
2022-10-23T23:53:49.993Z,97931.66
2022-10-23T23:56:17.011Z,97932.97
2022-10-23T23:58:43.722Z,97938.69
